sensor_id;sensor_type;location;lat;lon;timestamp;P1;durP1;ratioP1;P2;durP2;ratioP2
73276;SDS011;61501;43.316;5.372;2023-08-24T00:00:38;7.10;;;6.30;;
73276;SDS011;61501;43.316;5.372;2023-08-24T00:03:04;12.23;;;11.10;;
73276;SDS011;61501;43.316;5.372;2023-08-24T00:05:32;16.73;;;15.07;;
73276;SDS011;61501;43.316;5.372;2023-08-24T00:07:59;9.23;;;7.72;;
73276;SDS011;61501;43.316;5.372;2023-08-24T00:10:25;7.57;;;6.03;;
73276;SDS011;61501;43.316;5.372;2023-08-24T00:12:51;7.40;;;6.70;;
73276;SDS011;61501;43.316;5.372;2023-08-24T00:15:16;7.35;;;6.32;;
73276;SDS011;61501;43.316;5.372;2023-08-24T00:17:42;6.90;;;6.30;;
73276;SDS011;61501;43.316;5.372;2023-08-24T00:20:08;7.70;;;7.00;;
73276;SDS011;61501;43.316;5.372;2023-08-24T00:22:39;6.88;;;6.07;;
73276;SDS011;61501;43.316;5.372;2023-08-24T00:25:08;7.28;;;6.57;;
73276;SDS011;61501;43.316;5.372;2023-08-24T00:27:35;8.35;;;6.07;;
73276;SDS011;61501;43.316;5.372;2023-08-24T00:30:02;6.90;;;6.30;;
73276;SDS011;61501;43.316;5.372;2023-08-24T00:32:29;10.43;;;5.90;;
73276;SDS011;61501;43.316;5.372;2023-08-24T00:34:59;8.23;;;6.15;;
73276;SDS011;61501;43.316;5.372;2023-08-24T00:37:29;7.68;;;6.47;;
73276;SDS011;61501;43.316;5.372;2023-08-24T00:39:55;7.05;;;6.10;;
73276;SDS011;61501;43.316;5.372;2023-08-24T00:42:21;8.30;;;6.55;;
73276;SDS011;61501;43.316;5.372;2023-08-24T00:44:48;7.65;;;6.95;;
73276;SDS011;61501;43.316;5.372;2023-08-24T00:47:14;6.95;;;6.35;;
73276;SDS011;61501;43.316;5.372;2023-08-24T00:49:40;7.13;;;6.43;;
73276;SDS011;61501;43.316;5.372;2023-08-24T00:52:06;8.50;;;6.07;;
73276;SDS011;61501;43.316;5.372;2023-08-24T00:54:32;6.70;;;6.03;;
73276;SDS011;61501;43.316;5.372;2023-08-24T00:56:58;6.75;;;6.15;;
73276;SDS011;61501;43.316;5.372;2023-08-24T00:59:24;6.88;;;6.18;;
73276;SDS011;61501;43.316;5.372;2023-08-24T01:01:50;8.07;;;6.15;;
73276;SDS011;61501;43.316;5.372;2023-08-24T01:04:17;7.32;;;5.68;;
73276;SDS011;61501;43.316;5.372;2023-08-24T01:06:43;7.20;;;5.82;;
73276;SDS011;61501;43.316;5.372;2023-08-24T01:09:08;6.88;;;5.68;;
73276;SDS011;61501;43.316;5.372;2023-08-24T01:11:47;6.95;;;6.22;;
73276;SDS011;61501;43.316;5.372;2023-08-24T01:17:13;9.80;;;5.88;;
73276;SDS011;61501;43.316;5.372;2023-08-24T01:19:42;7.50;;;6.10;;
73276;SDS011;61501;43.316;5.372;2023-08-24T01:25:38;8.98;;;5.72;;
73276;SDS011;61501;43.316;5.372;2023-08-24T01:27:41;6.30;;;5.80;;
73276;SDS011;61501;43.316;5.372;2023-08-24T01:30:08;9.48;;;5.97;;
73276;SDS011;61501;43.316;5.372;2023-08-24T01:32:35;7.50;;;5.88;;
73276;SDS011;61501;43.316;5.372;2023-08-24T01:35:02;6.63;;;5.60;;
73276;SDS011;61501;43.316;5.372;2023-08-24T01:37:30;8.55;;;6.95;;
73276;SDS011;61501;43.316;5.372;2023-08-24T01:40:00;13.23;;;11.93;;
73276;SDS011;61501;43.316;5.372;2023-08-24T01:42:48;9.70;;;7.53;;
73276;SDS011;61501;43.316;5.372;2023-08-24T01:45:19;6.43;;;5.82;;
73276;SDS011;61501;43.316;5.372;2023-08-24T01:47:47;9.85;;;8.10;;
73276;SDS011;61501;43.316;5.372;2023-08-24T01:50:14;9.38;;;6.75;;
73276;SDS011;61501;43.316;5.372;2023-08-24T01:52:40;8.85;;;7.40;;
73276;SDS011;61501;43.316;5.372;2023-08-24T01:55:07;7.10;;;5.90;;
73276;SDS011;61501;43.316;5.372;2023-08-24T01:57:33;5.97;;;5.38;;
73276;SDS011;61501;43.316;5.372;2023-08-24T01:59:58;8.18;;;5.95;;
73276;SDS011;61501;43.316;5.372;2023-08-24T02:02:24;6.88;;;6.00;;
73276;SDS011;61501;43.316;5.372;2023-08-24T02:04:50;6.18;;;5.57;;
73276;SDS011;61501;43.316;5.372;2023-08-24T02:07:16;6.13;;;5.53;;
73276;SDS011;61501;43.316;5.372;2023-08-24T02:09:41;6.30;;;5.70;;
73276;SDS011;61501;43.316;5.372;2023-08-24T02:12:07;6.15;;;5.32;;
73276;SDS011;61501;43.316;5.372;2023-08-24T02:14:32;6.53;;;5.93;;
73276;SDS011;61501;43.316;5.372;2023-08-24T02:16:58;6.65;;;5.68;;
73276;SDS011;61501;43.316;5.372;2023-08-24T02:19:24;5.78;;;5.05;;
73276;SDS011;61501;43.316;5.372;2023-08-24T02:21:49;7.20;;;5.80;;
73276;SDS011;61501;43.316;5.372;2023-08-24T02:24:15;6.05;;;5.45;;
73276;SDS011;61501;43.316;5.372;2023-08-24T02:26:40;8.02;;;5.47;;
73276;SDS011;61501;43.316;5.372;2023-08-24T02:29:06;6.10;;;5.50;;
73276;SDS011;61501;43.316;5.372;2023-08-24T02:31:32;7.15;;;5.82;;
73276;SDS011;61501;43.316;5.372;2023-08-24T02:33:58;6.68;;;6.07;;
73276;SDS011;61501;43.316;5.372;2023-08-24T02:36:23;6.20;;;5.60;;
73276;SDS011;61501;43.316;5.372;2023-08-24T02:38:49;6.38;;;5.78;;
73276;SDS011;61501;43.316;5.372;2023-08-24T02:41:15;6.57;;;5.90;;
73276;SDS011;61501;43.316;5.372;2023-08-24T02:43:41;6.85;;;5.88;;
73276;SDS011;61501;43.316;5.372;2023-08-24T02:46:07;6.45;;;5.70;;
73276;SDS011;61501;43.316;5.372;2023-08-24T02:48:34;5.88;;;5.38;;
73276;SDS011;61501;43.316;5.372;2023-08-24T02:51:01;6.07;;;5.47;;
73276;SDS011;61501;43.316;5.372;2023-08-24T02:53:28;6.47;;;5.80;;
73276;SDS011;61501;43.316;5.372;2023-08-24T02:55:54;7.03;;;6.32;;
73276;SDS011;61501;43.316;5.372;2023-08-24T02:58:20;7.35;;;5.90;;
73276;SDS011;61501;43.316;5.372;2023-08-24T03:00:46;6.43;;;5.38;;
73276;SDS011;61501;43.316;5.372;2023-08-24T03:03:15;7.07;;;5.53;;
73276;SDS011;61501;43.316;5.372;2023-08-24T03:05:50;7.05;;;5.57;;
73276;SDS011;61501;43.316;5.372;2023-08-24T03:08:24;6.20;;;5.43;;
73276;SDS011;61501;43.316;5.372;2023-08-24T03:10:50;6.60;;;6.00;;
73276;SDS011;61501;43.316;5.372;2023-08-24T03:13:15;6.57;;;6.07;;
73276;SDS011;61501;43.316;5.372;2023-08-24T03:15:41;7.97;;;6.22;;
73276;SDS011;61501;43.316;5.372;2023-08-24T03:18:07;6.75;;;5.97;;
73276;SDS011;61501;43.316;5.372;2023-08-24T03:20:32;5.90;;;5.40;;
73276;SDS011;61501;43.316;5.372;2023-08-24T03:22:58;6.07;;;5.57;;
73276;SDS011;61501;43.316;5.372;2023-08-24T03:25:23;5.90;;;5.40;;
73276;SDS011;61501;43.316;5.372;2023-08-24T03:27:49;6.85;;;5.93;;
73276;SDS011;61501;43.316;5.372;2023-08-24T03:30:15;8.45;;;6.47;;
73276;SDS011;61501;43.316;5.372;2023-08-24T03:32:41;6.30;;;5.72;;
73276;SDS011;61501;43.316;5.372;2023-08-24T03:35:07;7.10;;;5.93;;
73276;SDS011;61501;43.316;5.372;2023-08-24T03:37:33;6.38;;;5.78;;
73276;SDS011;61501;43.316;5.372;2023-08-24T03:39:58;6.30;;;5.70;;
73276;SDS011;61501;43.316;5.372;2023-08-24T03:42:26;6.60;;;5.88;;
73276;SDS011;61501;43.316;5.372;2023-08-24T03:44:52;7.03;;;6.00;;
73276;SDS011;61501;43.316;5.372;2023-08-24T03:47:17;8.93;;;6.20;;
73276;SDS011;61501;43.316;5.372;2023-08-24T03:49:43;7.28;;;6.25;;
73276;SDS011;61501;43.316;5.372;2023-08-24T03:52:09;9.55;;;6.45;;
73276;SDS011;61501;43.316;5.372;2023-08-24T03:54:35;8.95;;;6.25;;
73276;SDS011;61501;43.316;5.372;2023-08-24T03:57:01;6.97;;;5.75;;
73276;SDS011;61501;43.316;5.372;2023-08-24T03:59:27;10.85;;;6.25;;
73276;SDS011;61501;43.316;5.372;2023-08-24T04:01:55;7.13;;;5.80;;
73276;SDS011;61501;43.316;5.372;2023-08-24T04:04:20;8.85;;;6.13;;
73276;SDS011;61501;43.316;5.372;2023-08-24T04:06:46;7.07;;;5.78;;
73276;SDS011;61501;43.316;5.372;2023-08-24T04:09:11;10.48;;;6.05;;
73276;SDS011;61501;43.316;5.372;2023-08-24T04:11:37;12.55;;;6.43;;
73276;SDS011;61501;43.316;5.372;2023-08-24T04:14:03;10.50;;;6.10;;
73276;SDS011;61501;43.316;5.372;2023-08-24T04:16:28;6.43;;;5.82;;
73276;SDS011;61501;43.316;5.372;2023-08-24T04:18:54;6.53;;;5.55;;
73276;SDS011;61501;43.316;5.372;2023-08-24T04:21:19;8.73;;;5.93;;
73276;SDS011;61501;43.316;5.372;2023-08-24T04:23:45;12.65;;;6.43;;
73276;SDS011;61501;43.316;5.372;2023-08-24T04:26:11;7.10;;;5.63;;
73276;SDS011;61501;43.316;5.372;2023-08-24T04:28:38;6.43;;;5.45;;
73276;SDS011;61501;43.316;5.372;2023-08-24T04:31:03;9.77;;;6.32;;
73276;SDS011;61501;43.316;5.372;2023-08-24T04:33:29;6.63;;;6.03;;
73276;SDS011;61501;43.316;5.372;2023-08-24T04:35:54;8.50;;;5.70;;
73276;SDS011;61501;43.316;5.372;2023-08-24T04:38:20;7.00;;;5.97;;
73276;SDS011;61501;43.316;5.372;2023-08-24T04:40:51;6.65;;;5.95;;
73276;SDS011;61501;43.316;5.372;2023-08-24T04:43:18;6.72;;;6.05;;
73276;SDS011;61501;43.316;5.372;2023-08-24T04:45:51;6.95;;;6.35;;
73276;SDS011;61501;43.316;5.372;2023-08-24T04:48:19;6.50;;;5.93;;
73276;SDS011;61501;43.316;5.372;2023-08-24T04:50:48;6.15;;;5.57;;
73276;SDS011;61501;43.316;5.372;2023-08-24T04:53:18;6.78;;;5.68;;
73276;SDS011;61501;43.316;5.372;2023-08-24T04:55:45;6.53;;;5.93;;
73276;SDS011;61501;43.316;5.372;2023-08-24T04:58:11;6.80;;;5.45;;
73276;SDS011;61501;43.316;5.372;2023-08-24T05:00:37;8.15;;;5.53;;
73276;SDS011;61501;43.316;5.372;2023-08-24T05:03:06;8.38;;;5.72;;
73276;SDS011;61501;43.316;5.372;2023-08-24T05:05:32;9.93;;;5.82;;
73276;SDS011;61501;43.316;5.372;2023-08-24T05:08:00;10.93;;;5.82;;
73276;SDS011;61501;43.316;5.372;2023-08-24T05:10:30;8.50;;;6.10;;
73276;SDS011;61501;43.316;5.372;2023-08-24T05:12:57;8.90;;;6.18;;
73276;SDS011;61501;43.316;5.372;2023-08-24T05:15:22;8.80;;;6.47;;
73276;SDS011;61501;43.316;5.372;2023-08-24T05:17:48;7.43;;;6.38;;
73276;SDS011;61501;43.316;5.372;2023-08-24T05:20:15;10.25;;;6.85;;
73276;SDS011;61501;43.316;5.372;2023-08-24T05:22:40;9.40;;;5.65;;
73276;SDS011;61501;43.316;5.372;2023-08-24T05:25:06;7.60;;;6.22;;
73276;SDS011;61501;43.316;5.372;2023-08-24T05:27:32;7.38;;;6.57;;
73276;SDS011;61501;43.316;5.372;2023-08-24T05:29:58;7.32;;;6.13;;
73276;SDS011;61501;43.316;5.372;2023-08-24T05:32:23;11.52;;;6.10;;
73276;SDS011;61501;43.316;5.372;2023-08-24T05:34:49;9.05;;;6.00;;
73276;SDS011;61501;43.316;5.372;2023-08-24T05:37:15;9.68;;;6.72;;
73276;SDS011;61501;43.316;5.372;2023-08-24T05:39:41;11.15;;;6.68;;
73276;SDS011;61501;43.316;5.372;2023-08-24T05:42:08;9.52;;;6.45;;
73276;SDS011;61501;43.316;5.372;2023-08-24T05:44:34;13.07;;;7.00;;
73276;SDS011;61501;43.316;5.372;2023-08-24T05:47:00;8.70;;;6.32;;
73276;SDS011;61501;43.316;5.372;2023-08-24T05:49:26;9.05;;;6.30;;
73276;SDS011;61501;43.316;5.372;2023-08-24T05:51:51;9.60;;;6.15;;
73276;SDS011;61501;43.316;5.372;2023-08-24T05:54:17;8.90;;;6.38;;
73276;SDS011;61501;43.316;5.372;2023-08-24T05:56:44;10.85;;;5.82;;
73276;SDS011;61501;43.316;5.372;2023-08-24T05:59:10;7.63;;;5.80;;
73276;SDS011;61501;43.316;5.372;2023-08-24T06:01:35;7.65;;;5.80;;
73276;SDS011;61501;43.316;5.372;2023-08-24T06:04:04;9.82;;;6.65;;
73276;SDS011;61501;43.316;5.372;2023-08-24T06:06:30;7.65;;;6.25;;
73276;SDS011;61501;43.316;5.372;2023-08-24T06:08:56;19.42;;;6.65;;
73276;SDS011;61501;43.316;5.372;2023-08-24T06:11:22;8.18;;;6.47;;
73276;SDS011;61501;43.316;5.372;2023-08-24T06:13:48;10.63;;;6.88;;
73276;SDS011;61501;43.316;5.372;2023-08-24T06:16:13;8.15;;;6.10;;
73276;SDS011;61501;43.316;5.372;2023-08-24T06:18:39;13.90;;;6.32;;
73276;SDS011;61501;43.316;5.372;2023-08-24T06:21:05;9.23;;;6.60;;
73276;SDS011;61501;43.316;5.372;2023-08-24T06:23:30;9.75;;;7.07;;
73276;SDS011;61501;43.316;5.372;2023-08-24T06:25:56;7.65;;;6.22;;
73276;SDS011;61501;43.316;5.372;2023-08-24T06:28:21;13.48;;;6.20;;
73276;SDS011;61501;43.316;5.372;2023-08-24T06:30:47;7.20;;;6.47;;
73276;SDS011;61501;43.316;5.372;2023-08-24T06:33:13;9.90;;;6.38;;
73276;SDS011;61501;43.316;5.372;2023-08-24T06:35:42;7.28;;;6.57;;
73276;SDS011;61501;43.316;5.372;2023-08-24T06:38:08;14.63;;;6.95;;
73276;SDS011;61501;43.316;5.372;2023-08-24T06:40:33;10.40;;;6.35;;
73276;SDS011;61501;43.316;5.372;2023-08-24T06:42:59;16.27;;;7.22;;
73276;SDS011;61501;43.316;5.372;2023-08-24T06:45:24;14.32;;;6.82;;
73276;SDS011;61501;43.316;5.372;2023-08-24T06:47:50;12.88;;;7.00;;
73276;SDS011;61501;43.316;5.372;2023-08-24T06:50:17;14.32;;;7.78;;
73276;SDS011;61501;43.316;5.372;2023-08-24T06:52:44;10.05;;;6.97;;
73276;SDS011;61501;43.316;5.372;2023-08-24T06:55:10;16.83;;;7.15;;
73276;SDS011;61501;43.316;5.372;2023-08-24T06:57:37;15.27;;;7.13;;
73276;SDS011;61501;43.316;5.372;2023-08-24T07:00:02;12.73;;;7.05;;
73276;SDS011;61501;43.316;5.372;2023-08-24T07:02:33;12.60;;;6.97;;
73276;SDS011;61501;43.316;5.372;2023-08-24T07:04:59;8.23;;;6.63;;
73276;SDS011;61501;43.316;5.372;2023-08-24T07:07:26;9.68;;;6.95;;
73276;SDS011;61501;43.316;5.372;2023-08-24T07:09:51;9.05;;;7.18;;
73276;SDS011;61501;43.316;5.372;2023-08-24T07:12:17;9.75;;;6.93;;
73276;SDS011;61501;43.316;5.372;2023-08-24T07:14:43;13.20;;;7.28;;
73276;SDS011;61501;43.316;5.372;2023-08-24T07:17:08;12.35;;;6.78;;
73276;SDS011;61501;43.316;5.372;2023-08-24T07:19:34;11.52;;;7.80;;
73276;SDS011;61501;43.316;5.372;2023-08-24T07:22:00;14.52;;;8.18;;
73276;SDS011;61501;43.316;5.372;2023-08-24T07:24:26;17.55;;;8.35;;
73276;SDS011;61501;43.316;5.372;2023-08-24T07:26:53;18.85;;;9.68;;
73276;SDS011;61501;43.316;5.372;2023-08-24T07:29:19;20.30;;;8.85;;
73276;SDS011;61501;43.316;5.372;2023-08-24T07:31:46;17.08;;;7.88;;
73276;SDS011;61501;43.316;5.372;2023-08-24T07:34:11;16.85;;;7.80;;
73276;SDS011;61501;43.316;5.372;2023-08-24T07:36:37;21.80;;;8.55;;
73276;SDS011;61501;43.316;5.372;2023-08-24T07:39:03;14.57;;;8.38;;
73276;SDS011;61501;43.316;5.372;2023-08-24T07:41:28;22.23;;;8.65;;
73276;SDS011;61501;43.316;5.372;2023-08-24T07:43:54;19.67;;;8.10;;
73276;SDS011;61501;43.316;5.372;2023-08-24T07:46:20;16.90;;;7.65;;
73276;SDS011;61501;43.316;5.372;2023-08-24T07:48:45;19.02;;;7.20;;
73276;SDS011;61501;43.316;5.372;2023-08-24T07:51:11;21.35;;;9.02;;
73276;SDS011;61501;43.316;5.372;2023-08-24T07:53:37;12.68;;;7.38;;
73276;SDS011;61501;43.316;5.372;2023-08-24T07:56:02;14.45;;;8.00;;
73276;SDS011;61501;43.316;5.372;2023-08-24T07:58:28;15.65;;;7.40;;
73276;SDS011;61501;43.316;5.372;2023-08-24T08:00:56;12.27;;;7.57;;
73276;SDS011;61501;43.316;5.372;2023-08-24T08:03:22;16.98;;;7.93;;
73276;SDS011;61501;43.316;5.372;2023-08-24T08:05:47;15.00;;;7.25;;
73276;SDS011;61501;43.316;5.372;2023-08-24T08:08:13;18.42;;;7.75;;
73276;SDS011;61501;43.316;5.372;2023-08-24T08:10:39;17.20;;;6.95;;
73276;SDS011;61501;43.316;5.372;2023-08-24T08:13:06;13.63;;;7.80;;
73276;SDS011;61501;43.316;5.372;2023-08-24T08:15:32;12.85;;;7.82;;
73276;SDS011;61501;43.316;5.372;2023-08-24T08:17:59;12.75;;;7.82;;
73276;SDS011;61501;43.316;5.372;2023-08-24T08:20:24;14.77;;;7.93;;
73276;SDS011;61501;43.316;5.372;2023-08-24T08:22:50;11.93;;;7.45;;
73276;SDS011;61501;43.316;5.372;2023-08-24T08:25:16;11.82;;;7.97;;
73276;SDS011;61501;43.316;5.372;2023-08-24T08:27:44;9.63;;;8.52;;
73276;SDS011;61501;43.316;5.372;2023-08-24T08:30:10;9.75;;;8.20;;
73276;SDS011;61501;43.316;5.372;2023-08-24T08:32:36;12.27;;;8.05;;
73276;SDS011;61501;43.316;5.372;2023-08-24T08:35:02;11.98;;;7.75;;
73276;SDS011;61501;43.316;5.372;2023-08-24T08:37:30;9.85;;;8.05;;
73276;SDS011;61501;43.316;5.372;2023-08-24T08:39:56;10.20;;;8.40;;
73276;SDS011;61501;43.316;5.372;2023-08-24T08:42:22;11.88;;;7.75;;
73276;SDS011;61501;43.316;5.372;2023-08-24T08:44:48;8.95;;;8.05;;
73276;SDS011;61501;43.316;5.372;2023-08-24T08:47:14;10.35;;;7.93;;
73276;SDS011;61501;43.316;5.372;2023-08-24T08:49:43;14.00;;;11.32;;
73276;SDS011;61501;43.316;5.372;2023-08-24T08:52:11;13.68;;;9.50;;
73276;SDS011;61501;43.316;5.372;2023-08-24T08:54:37;11.13;;;9.63;;
73276;SDS011;61501;43.316;5.372;2023-08-24T08:57:02;14.45;;;10.63;;
73276;SDS011;61501;43.316;5.372;2023-08-24T08:59:29;10.32;;;9.35;;
73276;SDS011;61501;43.316;5.372;2023-08-24T09:02:00;12.63;;;9.98;;
73276;SDS011;61501;43.316;5.372;2023-08-24T09:04:27;12.23;;;11.02;;
73276;SDS011;61501;43.316;5.372;2023-08-24T09:06:55;11.73;;;9.82;;
73276;SDS011;61501;43.316;5.372;2023-08-24T09:09:21;12.57;;;10.68;;
73276;SDS011;61501;43.316;5.372;2023-08-24T09:11:50;15.85;;;10.25;;
73276;SDS011;61501;43.316;5.372;2023-08-24T09:14:15;12.15;;;9.88;;
73276;SDS011;61501;43.316;5.372;2023-08-24T09:16:41;10.60;;;9.52;;
73276;SDS011;61501;43.316;5.372;2023-08-24T09:19:10;10.77;;;9.65;;
73276;SDS011;61501;43.316;5.372;2023-08-24T09:21:37;12.73;;;10.35;;
73276;SDS011;61501;43.316;5.372;2023-08-24T09:24:06;11.93;;;10.75;;
73276;SDS011;61501;43.316;5.372;2023-08-24T09:26:35;12.32;;;10.70;;
73276;SDS011;61501;43.316;5.372;2023-08-24T09:29:14;11.90;;;10.75;;
73276;SDS011;61501;43.316;5.372;2023-08-24T09:31:41;11.43;;;10.32;;
73276;SDS011;61501;43.316;5.372;2023-08-24T09:34:10;11.35;;;10.43;;
73276;SDS011;61501;43.316;5.372;2023-08-24T09:36:37;11.55;;;10.45;;
73276;SDS011;61501;43.316;5.372;2023-08-24T09:39:03;11.43;;;10.32;;
73276;SDS011;61501;43.316;5.372;2023-08-24T09:44:12;12.00;;;10.77;;
73276;SDS011;61501;43.316;5.372;2023-08-24T09:46:38;17.45;;;11.38;;
73276;SDS011;61501;43.316;5.372;2023-08-24T09:49:06;11.90;;;10.77;;
73276;SDS011;61501;43.316;5.372;2023-08-24T09:51:35;15.30;;;10.63;;
73276;SDS011;61501;43.316;5.372;2023-08-24T09:54:04;12.55;;;11.45;;
73276;SDS011;61501;43.316;5.372;2023-08-24T09:56:34;17.83;;;11.63;;
73276;SDS011;61501;43.316;5.372;2023-08-24T09:59:06;14.50;;;11.95;;
73276;SDS011;61501;43.316;5.372;2023-08-24T10:01:46;16.20;;;11.63;;
73276;SDS011;61501;43.316;5.372;2023-08-24T10:04:14;13.52;;;12.10;;
73276;SDS011;61501;43.316;5.372;2023-08-24T10:06:42;16.35;;;12.30;;
73276;SDS011;61501;43.316;5.372;2023-08-24T10:09:11;16.40;;;12.00;;
73276;SDS011;61501;43.316;5.372;2023-08-24T10:11:48;14.52;;;11.68;;
73276;SDS011;61501;43.316;5.372;2023-08-24T10:16:49;15.60;;;12.50;;
73276;SDS011;61501;43.316;5.372;2023-08-24T10:19:15;13.35;;;12.15;;
73276;SDS011;61501;43.316;5.372;2023-08-24T10:21:42;17.15;;;11.63;;
73276;SDS011;61501;43.316;5.372;2023-08-24T10:24:09;13.93;;;12.02;;
73276;SDS011;61501;43.316;5.372;2023-08-24T10:26:36;13.75;;;12.32;;
73276;SDS011;61501;43.316;5.372;2023-08-24T10:29:03;14.18;;;12.75;;
73276;SDS011;61501;43.316;5.372;2023-08-24T10:31:30;13.77;;;12.57;;
73276;SDS011;61501;43.316;5.372;2023-08-24T10:33:57;15.20;;;13.00;;
73276;SDS011;61501;43.316;5.372;2023-08-24T10:36:23;13.57;;;12.32;;
73276;SDS011;61501;43.316;5.372;2023-08-24T10:38:50;14.23;;;12.40;;
73276;SDS011;61501;43.316;5.372;2023-08-24T10:41:27;14.48;;;12.93;;
73276;SDS011;61501;43.316;5.372;2023-08-24T10:43:53;13.68;;;12.40;;
73276;SDS011;61501;43.316;5.372;2023-08-24T10:46:30;15.52;;;12.13;;
73276;SDS011;61501;43.316;5.372;2023-08-24T10:49:00;13.65;;;12.55;;
73276;SDS011;61501;43.316;5.372;2023-08-24T10:51:28;13.30;;;12.05;;
73276;SDS011;61501;43.316;5.372;2023-08-24T10:53:58;13.10;;;12.07;;
73276;SDS011;61501;43.316;5.372;2023-08-24T10:59:36;16.67;;;11.50;;
73276;SDS011;61501;43.316;5.372;2023-08-24T11:01:59;13.82;;;10.85;;
73276;SDS011;61501;43.316;5.372;2023-08-24T11:04:26;12.30;;;11.02;;
73276;SDS011;61501;43.316;5.372;2023-08-24T11:09:21;12.90;;;11.57;;
73276;SDS011;61501;43.316;5.372;2023-08-24T11:11:58;14.20;;;12.95;;
73276;SDS011;61501;43.316;5.372;2023-08-24T11:14:25;12.38;;;11.32;;
73276;SDS011;61501;43.316;5.372;2023-08-24T11:16:55;12.25;;;11.15;;
73276;SDS011;61501;43.316;5.372;2023-08-24T11:19:24;11.88;;;10.77;;
73276;SDS011;61501;43.316;5.372;2023-08-24T11:21:50;12.73;;;11.48;;
73276;SDS011;61501;43.316;5.372;2023-08-24T11:24:17;12.23;;;11.00;;
73276;SDS011;61501;43.316;5.372;2023-08-24T11:26:46;13.23;;;11.38;;
73276;SDS011;61501;43.316;5.372;2023-08-24T11:29:13;11.77;;;10.85;;
73276;SDS011;61501;43.316;5.372;2023-08-24T11:31:40;12.65;;;11.43;;
73276;SDS011;61501;43.316;5.372;2023-08-24T11:34:07;12.20;;;11.10;;
73276;SDS011;61501;43.316;5.372;2023-08-24T11:36:48;12.23;;;11.18;;
73276;SDS011;61501;43.316;5.372;2023-08-24T11:39:18;11.52;;;10.52;;
73276;SDS011;61501;43.316;5.372;2023-08-24T11:44:24;12.20;;;11.02;;
73276;SDS011;61501;43.316;5.372;2023-08-24T11:46:50;12.20;;;11.18;;
73276;SDS011;61501;43.316;5.372;2023-08-24T11:49:15;14.02;;;12.52;;
73276;SDS011;61501;43.316;5.372;2023-08-24T11:51:41;12.57;;;11.40;;
73276;SDS011;61501;43.316;5.372;2023-08-24T11:54:07;14.10;;;12.07;;
73276;SDS011;61501;43.316;5.372;2023-08-24T11:56:34;13.57;;;12.43;;
73276;SDS011;61501;43.316;5.372;2023-08-24T11:59:12;12.90;;;11.77;;
73276;SDS011;61501;43.316;5.372;2023-08-24T12:01:40;13.15;;;11.38;;
73276;SDS011;61501;43.316;5.372;2023-08-24T12:04:07;12.32;;;10.35;;
73276;SDS011;61501;43.316;5.372;2023-08-24T12:06:32;12.25;;;10.82;;
73276;SDS011;61501;43.316;5.372;2023-08-24T12:08:58;10.70;;;9.65;;
73276;SDS011;61501;43.316;5.372;2023-08-24T12:11:24;10.75;;;9.55;;
73276;SDS011;61501;43.316;5.372;2023-08-24T12:13:52;13.20;;;11.80;;
73276;SDS011;61501;43.316;5.372;2023-08-24T12:16:19;34.65;;;19.17;;
73276;SDS011;61501;43.316;5.372;2023-08-24T12:18:51;12.98;;;11.20;;
73276;SDS011;61501;43.316;5.372;2023-08-24T12:21:18;10.75;;;9.85;;
73276;SDS011;61501;43.316;5.372;2023-08-24T12:23:45;10.63;;;9.57;;
73276;SDS011;61501;43.316;5.372;2023-08-24T12:26:20;11.15;;;10.00;;
73276;SDS011;61501;43.316;5.372;2023-08-24T12:28:52;10.85;;;8.93;;
73276;SDS011;61501;43.316;5.372;2023-08-24T12:31:18;11.82;;;9.57;;
73276;SDS011;61501;43.316;5.372;2023-08-24T12:33:45;11.30;;;9.40;;
73276;SDS011;61501;43.316;5.372;2023-08-24T12:36:22;9.82;;;9.02;;
73276;SDS011;61501;43.316;5.372;2023-08-24T12:38:47;10.75;;;9.32;;
73276;SDS011;61501;43.316;5.372;2023-08-24T12:41:13;9.98;;;8.98;;
73276;SDS011;61501;43.316;5.372;2023-08-24T12:43:38;10.25;;;9.25;;
73276;SDS011;61501;43.316;5.372;2023-08-24T12:46:04;9.93;;;9.05;;
73276;SDS011;61501;43.316;5.372;2023-08-24T12:48:29;9.70;;;8.80;;
73276;SDS011;61501;43.316;5.372;2023-08-24T12:50:55;9.13;;;8.43;;
73276;SDS011;61501;43.316;5.372;2023-08-24T12:53:21;9.23;;;8.35;;
73276;SDS011;61501;43.316;5.372;2023-08-24T12:55:46;8.27;;;7.57;;
73276;SDS011;61501;43.316;5.372;2023-08-24T12:58:12;9.90;;;8.05;;
73276;SDS011;61501;43.316;5.372;2023-08-24T13:00:37;8.73;;;7.93;;
73276;SDS011;61501;43.316;5.372;2023-08-24T13:03:03;8.70;;;8.00;;
73276;SDS011;61501;43.316;5.372;2023-08-24T13:05:29;8.75;;;8.05;;
73276;SDS011;61501;43.316;5.372;2023-08-24T13:07:54;9.70;;;8.90;;
73276;SDS011;61501;43.316;5.372;2023-08-24T13:10:21;8.80;;;8.10;;
73276;SDS011;61501;43.316;5.372;2023-08-24T13:12:46;9.13;;;8.15;;
73276;SDS011;61501;43.316;5.372;2023-08-24T13:15:12;8.48;;;7.78;;
73276;SDS011;61501;43.316;5.372;2023-08-24T13:17:38;9.57;;;8.50;;
73276;SDS011;61501;43.316;5.372;2023-08-24T13:20:04;10.73;;;9.63;;
73276;SDS011;61501;43.316;5.372;2023-08-24T13:22:31;10.45;;;9.45;;
73276;SDS011;61501;43.316;5.372;2023-08-24T13:24:57;9.73;;;8.73;;
73276;SDS011;61501;43.316;5.372;2023-08-24T13:27:22;10.35;;;9.27;;
73276;SDS011;61501;43.316;5.372;2023-08-24T13:29:48;10.15;;;8.88;;
73276;SDS011;61501;43.316;5.372;2023-08-24T13:32:14;9.73;;;8.70;;
73276;SDS011;61501;43.316;5.372;2023-08-24T13:34:39;9.25;;;8.32;;
73276;SDS011;61501;43.316;5.372;2023-08-24T13:37:05;9.57;;;8.68;;
73276;SDS011;61501;43.316;5.372;2023-08-24T13:39:30;8.35;;;7.65;;
73276;SDS011;61501;43.316;5.372;2023-08-24T13:41:59;8.30;;;7.60;;
73276;SDS011;61501;43.316;5.372;2023-08-24T13:44:25;7.90;;;7.30;;
73276;SDS011;61501;43.316;5.372;2023-08-24T13:46:51;8.73;;;7.95;;
73276;SDS011;61501;43.316;5.372;2023-08-24T13:49:17;11.30;;;8.07;;
73276;SDS011;61501;43.316;5.372;2023-08-24T13:51:46;8.45;;;7.78;;
73276;SDS011;61501;43.316;5.372;2023-08-24T13:54:13;8.50;;;7.80;;
73276;SDS011;61501;43.316;5.372;2023-08-24T13:56:46;9.07;;;8.38;;
73276;SDS011;61501;43.316;5.372;2023-08-24T13:59:13;8.75;;;7.97;;
73276;SDS011;61501;43.316;5.372;2023-08-24T14:01:39;8.60;;;7.75;;
73276;SDS011;61501;43.316;5.372;2023-08-24T14:04:08;9.07;;;8.27;;
73276;SDS011;61501;43.316;5.372;2023-08-24T14:06:33;8.88;;;8.07;;
73276;SDS011;61501;43.316;5.372;2023-08-24T14:09:00;9.00;;;8.05;;
73276;SDS011;61501;43.316;5.372;2023-08-24T14:11:27;8.27;;;7.53;;
73276;SDS011;61501;43.316;5.372;2023-08-24T14:13:53;8.15;;;7.47;;
73276;SDS011;61501;43.316;5.372;2023-08-24T14:16:19;8.30;;;7.70;;
73276;SDS011;61501;43.316;5.372;2023-08-24T14:18:45;8.15;;;7.55;;
73276;SDS011;61501;43.316;5.372;2023-08-24T14:21:11;9.00;;;8.15;;
73276;SDS011;61501;43.316;5.372;2023-08-24T14:23:36;8.52;;;7.63;;
73276;SDS011;61501;43.316;5.372;2023-08-24T14:26:02;8.60;;;8.00;;
73276;SDS011;61501;43.316;5.372;2023-08-24T14:28:46;8.85;;;8.05;;
73276;SDS011;61501;43.316;5.372;2023-08-24T14:31:23;10.68;;;9.32;;
73276;SDS011;61501;43.316;5.372;2023-08-24T14:33:50;11.00;;;8.82;;
73276;SDS011;61501;43.316;5.372;2023-08-24T14:36:17;8.73;;;7.93;;
73276;SDS011;61501;43.316;5.372;2023-08-24T14:38:43;8.95;;;7.90;;
73276;SDS011;61501;43.316;5.372;2023-08-24T14:41:09;10.10;;;8.23;;
73276;SDS011;61501;43.316;5.372;2023-08-24T14:43:35;8.55;;;7.70;;
73276;SDS011;61501;43.316;5.372;2023-08-24T14:46:01;9.80;;;7.72;;
73276;SDS011;61501;43.316;5.372;2023-08-24T14:48:27;8.05;;;7.13;;
73276;SDS011;61501;43.316;5.372;2023-08-24T14:50:53;9.05;;;6.63;;
73276;SDS011;61501;43.316;5.372;2023-08-24T14:53:19;8.95;;;7.72;;
73276;SDS011;61501;43.316;5.372;2023-08-24T14:55:45;9.57;;;6.40;;